Time;durP1;ratioP1;P1;durP2;ratioP2;P2;SDS_P1;SDS_P2;PMS_P1;PMS_P2;Temp;Humidity;BMP_temperature;BMP_pressure;BME280_temperature;BME280_humidity;BME280_pressure;Samples;Min_cycle;Max_cycle;Signal;HPM_P1;HPM_P2
2023/08/18 00:00:14;;;;;;;9.85;7.63;;;23.00;83.30;;;;;;5061011;28;20506;-71
2023/08/18 00:02:42;;;;;;;8.65;6.50;;;22.90;83.70;;;;;;5059754;28;20039;-71
2023/08/18 00:05:09;;;;;;;8.40;7.03;;;22.80;83.90;;;;;;5057877;28;20033;-71
2023/08/18 00:07:35;;;;;;;11.10;7.78;;;22.80;84.30;;;;;;5058573;28;20033;-71
2023/08/18 00:10:02;;;;;;;11.63;8.65;;;22.70;84.00;;;;;;5060221;28;20028;-71
2023/08/18 00:12:28;;;;;;;12.30;8.43;;;22.70;83.20;;;;;;5044852;28;20047;-71
2023/08/18 00:14:55;;;;;;;10.95;8.23;;;22.60;83.30;;;;;;5062954;28;20059;-71
2023/08/18 00:17:20;;;;;;;9.90;7.90;;;22.50;84.00;;;;;;5063229;28;20036;-72
2023/08/18 00:19:47;;;;;;;14.02;8.00;;;22.60;84.60;;;;;;5063198;28;20051;-72
2023/08/18 00:22:13;;;;;;;13.43;7.78;;;22.70;84.90;;;;;;5064121;28;20041;-72
2023/08/18 00:24:39;;;;;;;13.15;7.80;;;22.60;83.90;;;;;;5063853;28;20127;-72
2023/08/18 00:27:05;;;;;;;10.30;7.80;;;22.60;83.00;;;;;;5062045;28;20593;-72
2023/08/18 00:29:31;;;;;;;8.05;7.25;;;22.60;82.60;;;;;;5063226;28;20039;-72
2023/08/18 00:31:59;;;;;;;11.77;8.13;;;22.70;82.20;;;;;;5061786;28;20361;-71
2023/08/18 00:34:25;;;;;;;9.05;7.72;;;22.70;81.80;;;;;;5061352;28;20102;-72
2023/08/18 00:36:51;;;;;;;11.75;8.23;;;22.70;81.90;;;;;;5063036;28;20728;-72
2023/08/18 00:39:17;;;;;;;11.82;8.65;;;22.70;83.50;;;;;;5064692;28;20543;-71
2023/08/18 00:41:43;;;;;;;12.60;7.55;;;22.70;83.00;;;;;;5063861;28;20044;-70
2023/08/18 00:44:09;;;;;;;16.08;8.80;;;22.70;82.90;;;;;;5060591;28;20572;-68
2023/08/18 00:46:36;;;;;;;10.80;7.68;;;22.70;81.60;;;;;;5062653;28;20044;-69
2023/08/18 00:49:06;;;;;;;11.18;8.18;;;22.80;81.10;;;;;;5063317;28;20102;-68
2023/08/18 00:51:34;;;;;;;13.55;8.18;;;22.80;81.90;;;;;;5065054;28;20040;-69
2023/08/18 00:54:01;;;;;;;12.63;7.75;;;22.70;82.50;;;;;;5062726;28;20040;-69
2023/08/18 00:56:27;;;;;;;9.48;7.70;;;22.70;82.10;;;;;;5066122;28;20598;-69
2023/08/18 00:58:54;;;;;;;12.48;7.68;;;22.70;82.50;;;;;;5062670;28;20029;-69
2023/08/18 01:01:21;;;;;;;8.88;7.28;;;22.70;83.70;;;;;;5061896;28;21016;-69
2023/08/18 01:03:47;;;;;;;8.45;7.13;;;22.60;83.90;;;;;;5065359;28;20156;-69
2023/08/18 01:06:13;;;;;;;10.95;7.10;;;22.70;84.10;;;;;;5060783;28;20081;-69
2023/08/18 01:08:40;;;;;;;9.73;7.47;;;22.60;84.20;;;;;;5062385;28;20040;-70
2023/08/18 01:11:25;;;;;;;13.95;7.55;;;22.60;84.90;;;;;;5064942;28;20038;-69
2023/08/18 01:14:14;;;;;;;10.00;7.50;;;22.60;85.50;;;;;;5077881;28;20044;-70
2023/08/18 01:16:48;;;;;;;13.00;7.60;;;22.60;82.80;;;;;;5061327;28;20040;-69
2023/08/18 01:19:17;;;;;;;9.70;7.85;;;22.60;81.80;;;;;;5060592;28;20033;-70
2023/08/18 01:21:44;;;;;;;14.82;7.80;;;22.70;80.50;;;;;;5060352;28;20033;-69
2023/08/18 01:24:10;;;;;;;10.88;7.57;;;22.80;80.40;;;;;;5060362;28;20041;-69
2023/08/18 01:26:38;;;;;;;11.98;7.78;;;22.80;80.90;;;;;;5061450;28;20037;-69
2023/08/18 01:29:04;;;;;;;13.75;7.18;;;22.80;80.30;;;;;;5061227;28;20032;-69
2023/08/18 01:31:32;;;;;;;9.70;7.25;;;22.80;80.70;;;;;;5061911;28;20044;-69
2023/08/18 01:34:06;;;;;;;10.82;7.72;;;22.80;80.80;;;;;;5060991;28;20041;-69
2023/08/18 01:36:41;;;;;;;12.13;7.23;;;22.80;80.90;;;;;;5059745;28;20577;-69
2023/08/18 01:39:09;;;;;;;11.90;7.35;;;22.90;80.40;;;;;;5062110;28;20032;-68
2023/08/18 01:41:36;;;;;;;12.05;7.60;;;22.90;80.80;;;;;;5061690;28;20029;-69
2023/08/18 01:44:06;;;;;;;10.63;6.78;;;22.90;80.30;;;;;;5062188;28;20047;-69
2023/08/18 01:46:32;;;;;;;10.20;7.22;;;22.90;79.90;;;;;;5061461;28;20044;-69
2023/08/18 01:48:59;;;;;;;12.63;7.20;;;22.90;80.10;;;;;;5062035;28;20036;-69
2023/08/18 01:51:25;;;;;;;12.75;7.53;;;22.90;81.40;;;;;;5059392;28;20119;-69
2023/08/18 01:53:51;;;;;;;8.23;6.47;;;22.80;82.40;;;;;;5059108;28;20116;-69
2023/08/18 01:56:19;;;;;;;9.88;7.03;;;22.80;83.40;;;;;;5061523;28;20054;-69
2023/08/18 01:58:45;;;;;;;15.80;7.78;;;22.80;81.30;;;;;;5060678;28;20029;-69
2023/08/18 02:01:11;;;;;;;10.60;7.60;;;22.90;80.50;;;;;;5058394;28;20029;-70
2023/08/18 02:03:37;;;;;;;12.07;7.55;;;22.90;80.20;;;;;;5061369;28;20033;-69
2023/08/18 02:06:03;;;;;;;12.85;7.68;;;22.80;82.30;;;;;;5061343;28;20033;-69
2023/08/18 02:08:29;;;;;;;9.57;8.13;;;22.70;83.70;;;;;;5062069;28;20037;-70
2023/08/18 02:11:02;;;;;;;13.00;7.22;;;22.70;84.90;;;;;;5062015;28;20033;-70
2023/08/18 02:13:32;;;;;;;13.75;7.93;;;22.60;84.20;;;;;;5061761;28;20045;-70
2023/08/18 02:15:59;;;;;;;8.70;7.57;;;22.60;82.80;;;;;;5063396;28;20499;-70
2023/08/18 02:18:27;;;;;;;11.65;7.47;;;22.60;82.60;;;;;;5058705;28;20051;-69
2023/08/18 02:21:02;;;;;;;13.07;7.50;;;22.70;82.00;;;;;;5061553;28;20017;-69
2023/08/18 02:23:28;;;;;;;13.23;7.85;;;22.70;82.00;;;;;;5063485;28;20032;-69
2023/08/18 02:26:05;;;;;;;10.80;7.55;;;22.70;82.20;;;;;;5059772;28;20036;-70
2023/08/18 02:28:33;;;;;;;12.65;7.78;;;22.70;81.50;;;;;;5057419;28;20496;-70
2023/08/18 02:31:06;;;;;;;10.98;7.68;;;22.70;80.90;;;;;;5058946;28;20060;-70
2023/08/18 02:33:34;;;;;;;11.43;7.72;;;22.70;82.30;;;;;;5060154;28;20040;-70
2023/08/18 02:36:00;;;;;;;11.68;7.97;;;22.70;83.20;;;;;;5058767;28;20094;-69
2023/08/18 02:38:28;;;;;;;10.98;7.85;;;22.70;82.80;;;;;;5061245;28;20029;-69
2023/08/18 02:40:54;;;;;;;10.00;7.32;;;22.70;83.00;;;;;;5059386;28;20029;-69
2023/08/18 02:43:22;;;;;;;7.85;7.05;;;22.70;83.00;;;;;;5060617;28;20448;-69
2023/08/18 02:45:48;;;;;;;10.13;7.60;;;22.70;83.80;;;;;;5074096;28;20056;-69
2023/08/18 02:48:16;;;;;;;13.32;7.80;;;22.70;84.20;;;;;;5058024;28;20118;-69
2023/08/18 02:50:42;;;;;;;8.93;7.25;;;22.70;84.30;;;;;;5060705;28;20495;-69
2023/08/18 02:53:08;;;;;;;11.63;7.57;;;22.60;84.30;;;;;;5058654;28;20041;-69
2023/08/18 02:55:34;;;;;;;9.82;7.65;;;22.60;83.10;;;;;;5058809;28;20045;-70
2023/08/18 02:58:01;;;;;;;12.90;8.07;;;22.70;84.70;;;;;;5060334;28;20402;-72
2023/08/18 03:00:27;;;;;;;9.20;7.30;;;22.60;83.80;;;;;;5056285;28;20047;-72
2023/08/18 03:02:53;;;;;;;10.32;7.95;;;22.60;86.00;;;;;;5046965;28;20029;-73
2023/08/18 03:05:19;;;;;;;13.40;8.55;;;22.50;86.60;;;;;;5060622;28;20043;-72
2023/08/18 03:07:45;;;;;;;12.13;7.93;;;22.40;86.00;;;;;;5062504;28;20029;-72
2023/08/18 03:10:12;;;;;;;11.38;7.63;;;22.50;86.00;;;;;;5060700;28;20029;-73
2023/08/18 03:12:38;;;;;;;10.73;7.43;;;22.50;86.60;;;;;;5062074;28;20037;-73
2023/08/18 03:15:06;;;;;;;11.45;7.55;;;22.60;85.60;;;;;;5059185;28;20028;-73
2023/08/18 03:17:32;;;;;;;16.15;8.70;;;22.60;85.70;;;;;;5062419;28;20111;-73
2023/08/18 03:19:58;;;;;;;14.88;8.02;;;22.60;85.40;;;;;;5061752;28;20039;-73
2023/08/18 03:22:24;;;;;;;10.35;8.00;;;22.60;84.80;;;;;;5059351;28;20032;-73
2023/08/18 03:24:50;;;;;;;11.73;8.98;;;22.60;85.20;;;;;;5059854;28;20028;-73
2023/08/18 03:27:16;;;;;;;12.55;7.90;;;22.70;84.50;;;;;;5056906;28;20509;-73
2023/08/18 03:29:42;;;;;;;9.15;7.93;;;22.70;85.20;;;;;;5064072;28;20115;-73
2023/08/18 03:32:08;;;;;;;13.95;8.35;;;22.70;85.20;;;;;;5060925;28;20037;-74
2023/08/18 03:34:34;;;;;;;10.38;7.53;;;22.80;85.00;;;;;;5060546;28;20076;-74
2023/08/18 03:37:00;;;;;;;13.52;8.38;;;22.80;85.20;;;;;;5060027;28;20041;-75
2023/08/18 03:39:27;;;;;;;12.50;8.13;;;22.80;85.20;;;;;;5056999;28;20055;-74
2023/08/18 03:41:53;;;;;;;12.73;8.68;;;22.80;85.00;;;;;;5046700;28;20029;-74
2023/08/18 03:44:19;;;;;;;12.60;8.60;;;22.80;84.40;;;;;;5044857;28;20040;-74
2023/08/18 03:46:47;;;;;;;13.38;9.10;;;22.90;84.50;;;;;;5056345;28;20032;-76
2023/08/18 03:49:13;;;;;;;15.02;9.43;;;22.90;83.30;;;;;;5061993;28;20048;-75
2023/08/18 03:51:39;;;;;;;15.40;9.85;;;23.00;82.20;;;;;;5050659;28;20036;-75
2023/08/18 03:54:05;;;;;;;13.82;9.13;;;23.00;82.00;;;;;;5066484;28;20059;-74
2023/08/18 03:56:31;;;;;;;15.57;9.63;;;23.00;83.50;;;;;;5062618;28;20392;-76
2023/08/18 03:58:58;;;;;;;14.48;9.80;;;23.00;83.90;;;;;;5060296;28;20127;-76
2023/08/18 04:01:23;;;;;;;14.23;9.05;;;23.10;84.40;;;;;;5065739;28;20198;-73
2023/08/18 04:03:49;;;;;;;15.18;9.82;;;23.10;84.30;;;;;;5078708;28;20983;-73
2023/08/18 04:06:16;;;;;;;15.57;10.00;;;23.10;84.30;;;;;;5063626;28;20116;-73
2023/08/18 04:08:43;;;;;;;17.42;10.35;;;23.20;83.70;;;;;;5063169;28;20487;-72
2023/08/18 04:11:13;;;;;;;12.77;9.65;;;23.30;82.90;;;;;;5059327;28;20048;-72
2023/08/18 04:13:40;;;;;;;19.42;11.32;;;23.40;82.00;;;;;;5064869;28;20055;-72
2023/08/18 04:16:07;;;;;;;16.63;10.25;;;23.50;81.30;;;;;;5064487;28;20060;-71
2023/08/18 04:18:33;;;;;;;14.00;10.13;;;23.60;81.20;;;;;;5063556;28;20033;-70
2023/08/18 04:20:59;;;;;;;15.43;9.63;;;23.60;81.40;;;;;;5059606;28;20293;-72
2023/08/18 04:23:26;;;;;;;13.77;8.85;;;23.60;81.40;;;;;;5059598;28;20029;-71
2023/08/18 04:25:52;;;;;;;12.30;8.90;;;23.80;80.30;;;;;;5062851;28;20044;-71
2023/08/18 04:28:18;;;;;;;12.38;9.05;;;24.00;79.50;;;;;;5061142;28;20075;-71
2023/08/18 04:30:46;;;;;;;14.00;8.80;;;24.30;78.30;;;;;;5064303;28;20131;-71
2023/08/18 04:33:18;;;;;;;13.18;8.82;;;24.60;76.60;;;;;;5077201;28;20036;-72
2023/08/18 04:35:44;;;;;;;10.93;8.38;;;24.70;76.60;;;;;;5062837;28;20773;-72
2023/08/18 04:38:11;;;;;;;12.90;8.07;;;24.80;76.50;;;;;;5061928;28;20033;-72
2023/08/18 04:40:37;;;;;;;12.48;7.65;;;25.00;76.50;;;;;;5046781;28;20033;-70
2023/08/18 04:43:03;;;;;;;13.75;8.07;;;25.30;75.70;;;;;;5063219;28;20064;-71
2023/08/18 04:45:29;;;;;;;10.00;8.13;;;25.50;75.50;;;;;;5064546;28;20032;-71
2023/08/18 04:47:56;;;;;;;10.82;7.75;;;25.70;73.30;;;;;;5059594;28;20064;-72
2023/08/18 04:50:23;;;;;;;9.60;6.68;;;25.70;72.60;;;;;;5060788;28;20070;-72
2023/08/18 04:52:48;;;;;;;9.50;7.40;;;25.80;73.40;;;;;;5079830;28;20558;-72
2023/08/18 04:55:15;;;;;;;8.93;7.28;;;25.90;72.10;;;;;;5059052;28;20075;-71
2023/08/18 04:57:41;;;;;;;10.63;6.70;;;25.90;71.90;;;;;;5059660;28;20114;-72
2023/08/18 05:00:09;;;;;;;11.30;7.10;;;25.90;73.00;;;;;;5061532;28;20115;-72
2023/08/18 05:02:35;;;;;;;9.80;7.22;;;25.90;73.00;;;;;;5060685;28;20021;-73
2023/08/18 05:05:02;;;;;;;16.65;7.97;;;25.80;73.30;;;;;;5061792;28;20064;-72
2023/08/18 05:07:28;;;;;;;10.93;8.02;;;25.70;73.00;;;;;;5047265;28;20029;-72
2023/08/18 05:09:54;;;;;;;12.30;8.70;;;25.70;73.60;;;;;;5063488;28;20400;-72
2023/08/18 05:12:20;;;;;;;12.55;8.27;;;25.60;73.90;;;;;;5058553;28;20051;-73
2023/08/18 05:14:46;;;;;;;13.70;8.25;;;25.50;74.00;;;;;;5062041;28;20132;-73
2023/08/18 05:17:12;;;;;;;12.05;7.95;;;25.50;74.40;;;;;;5060570;28;20507;-73
2023/08/18 05:19:38;;;;;;;12.27;8.30;;;25.40;74.60;;;;;;5059867;28;20029;-70
2023/08/18 05:22:04;;;;;;;17.10;8.70;;;25.30;74.80;;;;;;5061399;28;20029;-69
2023/08/18 05:24:30;;;;;;;11.85;8.82;;;25.20;75.90;;;;;;5059079;28;20035;-69
2023/08/18 05:26:56;;;;;;;11.80;8.65;;;25.20;76.90;;;;;;5061285;28;20033;-71
2023/08/18 05:29:22;;;;;;;13.52;9.23;;;25.20;76.60;;;;;;5059335;28;20082;-69
2023/08/18 05:31:48;;;;;;;16.60;9.35;;;25.20;75.70;;;;;;5062632;28;20460;-68
2023/08/18 05:34:14;;;;;;;13.95;9.63;;;25.20;75.20;;;;;;5059886;28;20029;-68
2023/08/18 05:36:40;;;;;;;15.68;10.13;;;25.00;74.90;;;;;;5062809;28;20043;-68
2023/08/18 05:39:06;;;;;;;13.50;9.68;;;25.00;76.70;;;;;;5062280;28;20036;-69
2023/08/18 05:41:32;;;;;;;14.50;9.85;;;25.00;76.60;;;;;;5059663;28;20531;-68
2023/08/18 05:43:58;;;;;;;14.68;9.65;;;24.90;76.80;;;;;;5061125;28;20048;-69
2023/08/18 05:46:24;;;;;;;16.42;9.80;;;24.90;77.30;;;;;;5059245;28;20172;-68
2023/08/18 05:48:50;;;;;;;15.38;10.35;;;24.90;77.20;;;;;;5058697;28;20032;-67
2023/08/18 05:51:15;;;;;;;12.95;9.00;;;24.90;76.50;;;;;;5060119;28;20020;-69
2023/08/18 05:53:41;;;;;;;15.48;10.20;;;24.90;77.40;;;;;;5062027;28;20024;-69
2023/08/18 05:56:07;;;;;;;13.93;10.02;;;24.90;78.40;;;;;;5058653;28;20040;-69
2023/08/18 05:58:33;;;;;;;13.82;10.05;;;24.90;77.80;;;;;;5059357;28;20040;-68
2023/08/18 06:00:59;;;;;;;16.45;10.48;;;24.90;78.30;;;;;;5057313;28;20037;-68
2023/08/18 06:03:25;;;;;;;15.77;11.25;;;24.80;78.90;;;;;;5059794;28;20028;-68
2023/08/18 06:05:51;;;;;;;13.55;11.32;;;24.80;79.30;;;;;;5060379;28;20032;-68
2023/08/18 06:08:17;;;;;;;14.70;11.07;;;24.80;79.30;;;;;;5059979;28;20508;-67
2023/08/18 06:10:43;;;;;;;12.73;10.48;;;24.90;80.10;;;;;;5060259;28;20117;-68
2023/08/18 06:13:09;;;;;;;15.25;10.18;;;24.90;81.10;;;;;;5058511;28;20306;-68
2023/08/18 06:15:36;;;;;;;13.40;9.80;;;24.90;81.00;;;;;;5059568;28;20041;-68
2023/08/18 06:18:02;;;;;;;15.07;10.38;;;24.90;81.30;;;;;;5060911;28;20462;-68
2023/08/18 06:20:28;;;;;;;13.57;10.15;;;24.90;81.10;;;;;;5058724;28;20064;-67
2023/08/18 06:22:54;;;;;;;16.60;10.15;;;24.90;80.80;;;;;;5058633;28;20081;-68
2023/08/18 06:25:20;;;;;;;14.02;9.50;;;24.90;80.50;;;;;;5058040;28;20033;-68
2023/08/18 06:27:46;;;;;;;11.38;8.98;;;25.00;81.00;;;;;;5059393;28;20044;-67
2023/08/18 06:30:12;;;;;;;11.20;9.63;;;25.10;81.10;;;;;;5061047;28;20381;-68
2023/08/18 06:32:38;;;;;;;14.88;10.45;;;25.20;81.00;;;;;;5061245;28;20060;-69
2023/08/18 06:35:05;;;;;;;17.63;11.00;;;25.20;80.40;;;;;;5059235;28;20067;-70
2023/08/18 06:37:31;;;;;;;16.92;9.48;;;25.20;79.60;;;;;;5059324;28;20048;-67
2023/08/18 06:39:56;;;;;;;16.15;10.20;;;25.30;79.80;;;;;;5059869;28;20044;-68
2023/08/18 06:42:22;;;;;;;14.52;9.57;;;25.40;80.00;;;;;;5060335;28;20526;-68
2023/08/18 06:44:50;;;;;;;16.77;9.65;;;25.40;79.30;;;;;;5058833;28;20526;-68
2023/08/18 06:47:16;;;;;;;14.02;9.40;;;25.50;79.50;;;;;;5059599;28;20546;-67
2023/08/18 06:49:42;;;;;;;14.68;11.27;;;25.60;79.50;;;;;;5058226;28;20029;-68
2023/08/18 06:52:07;;;;;;;13.77;9.55;;;25.60;78.00;;;;;;5056778;28;20167;-68
2023/08/18 06:54:33;;;;;;;12.25;8.40;;;25.70;79.60;;;;;;5055821;28;20040;-68
2023/08/18 06:57:00;;;;;;;10.60;7.70;;;25.80;82.90;;;;;;5060038;28;20051;-68
2023/08/18 06:59:26;;;;;;;10.15;7.38;;;26.00;83.30;;;;;;5057625;28;20045;-68
2023/08/18 07:01:53;;;;;;;14.93;10.30;;;26.10;83.60;;;;;;5061185;28;20420;-68
2023/08/18 07:04:19;;;;;;;12.70;8.30;;;26.20;79.10;;;;;;5058566;28;20625;-66
2023/08/18 07:06:45;;;;;;;11.38;8.38;;;26.30;81.40;;;;;;5058842;28;20070;-66
2023/08/18 07:09:12;;;;;;;11.35;8.85;;;26.40;80.60;;;;;;5059003;28;20017;-66
2023/08/18 07:11:38;;;;;;;10.20;8.13;;;26.60;76.90;;;;;;5059038;28;20566;-70
2023/08/18 07:14:04;;;;;;;15.45;10.75;;;26.70;75.40;;;;;;5060891;28;20044;-71
2023/08/18 07:16:30;;;;;;;15.20;11.27;;;26.90;72.60;;;;;;5063410;28;20039;-70
2023/08/18 07:18:57;;;;;;;17.98;12.00;;;27.00;71.90;;;;;;5059401;28;20037;-70
2023/08/18 07:21:23;;;;;;;14.13;10.02;;;27.10;70.40;;;;;;5062853;28;20032;-71
2023/08/18 07:23:49;;;;;;;11.57;9.15;;;27.10;70.00;;;;;;5062028;28;20672;-69
2023/08/18 07:26:16;;;;;;;13.73;9.18;;;27.20;68.10;;;;;;5063047;28;20314;-70
2023/08/18 07:28:42;;;;;;;12.82;8.82;;;27.20;68.80;;;;;;5064926;28;20039;-70
2023/08/18 07:31:09;;;;;;;10.75;7.65;;;27.20;68.80;;;;;;5063706;28;20063;-69
2023/08/18 07:33:36;;;;;;;8.80;7.30;;;27.20;69.20;;;;;;5062764;28;20041;-70
2023/08/18 07:36:02;;;;;;;10.85;8.73;;;27.30;69.50;;;;;;5061958;28;20032;-75
2023/08/18 07:38:32;;;;;;;12.18;7.90;;;27.40;70.30;;;;;;5063794;28;20423;-78
2023/08/18 07:40:59;;;;;;;11.30;7.85;;;27.40;71.10;;;;;;5064087;28;20040;-76
2023/08/18 07:43:25;;;;;;;10.50;8.10;;;27.40;71.50;;;;;;5067190;28;20041;-76
2023/08/18 07:45:51;;;;;;;9.00;7.47;;;27.50;71.60;;;;;;5067430;28;20067;-74
2023/08/18 07:48:17;;;;;;;9.25;7.05;;;27.50;74.40;;;;;;5064167;28;20033;-75
2023/08/18 07:50:43;;;;;;;9.35;7.35;;;27.40;75.50;;;;;;5064845;28;20046;-74
2023/08/18 07:53:09;;;;;;;11.38;7.82;;;27.40;74.30;;;;;;5063959;28;20043;-78
2023/08/18 07:55:36;;;;;;;10.05;7.53;;;27.40;73.20;;;;;;5064036;28;20075;-75
2023/08/18 07:58:04;;;;;;;11.43;7.20;;;27.40;71.70;;;;;;5064443;28;20055;-76
2023/08/18 08:00:30;;;;;;;8.52;6.80;;;27.40;73.50;;;;;;5063351;28;20036;-77
2023/08/18 08:02:59;;;;;;;8.45;6.53;;;27.50;72.40;;;;;;5065108;28;20450;-78
2023/08/18 08:05:26;;;;;;;8.40;7.13;;;27.40;75.10;;;;;;5063822;28;20448;-80
2023/08/18 08:07:52;;;;;;;7.90;7.10;;;27.50;71.10;;;;;;5065085;28;20511;-76
2023/08/18 08:10:18;;;;;;;11.38;7.10;;;27.60;69.90;;;;;;5063341;28;20123;-77
2023/08/18 08:12:45;;;;;;;10.32;7.32;;;27.60;70.00;;;;;;5065351;28;20139;-76
2023/08/18 08:15:13;;;;;;;9.85;6.97;;;27.50;70.20;;;;;;5064256;28;20529;-76
2023/08/18 08:17:39;;;;;;;10.48;7.57;;;27.60;69.30;;;;;;5062500;28;20052;-75
2023/08/18 08:20:17;;;;;;;9.27;6.85;;;27.60;70.20;;;;;;5065325;28;20049;-76
2023/08/18 08:22:46;;;;;;;8.30;6.50;;;27.60;69.80;;;;;;5063685;28;20486;-73
2023/08/18 08:25:12;;;;;;;8.00;6.00;;;27.60;72.80;;;;;;5063163;28;20503;-72
2023/08/18 08:27:39;;;;;;;9.15;7.07;;;27.60;73.70;;;;;;5061475;28;20032;-71
2023/08/18 08:30:07;;;;;;;6.85;5.50;;;27.70;73.10;;;;;;5062470;28;20142;-72
2023/08/18 08:32:33;;;;;;;8.05;6.05;;;27.80;69.10;;;;;;5063419;28;20411;-72
2023/08/18 08:34:59;;;;;;;9.48;7.70;;;27.80;70.60;;;;;;5059295;28;20520;-72
2023/08/18 08:37:25;;;;;;;15.15;10.38;;;27.80;72.90;;;;;;5062247;28;20735;-73
2023/08/18 08:39:51;;;;;;;14.25;10.73;;;27.90;74.50;;;;;;5065019;28;20434;-73
2023/08/18 08:42:17;;;;;;;10.68;8.00;;;27.80;74.40;;;;;;5062757;28;20171;-73
2023/08/18 08:44:43;;;;;;;9.13;8.23;;;27.80;72.80;;;;;;5062505;28;20102;-72
2023/08/18 08:47:10;;;;;;;11.27;9.88;;;27.80;74.80;;;;;;5060300;28;20032;-73
2023/08/18 08:49:39;;;;;;;8.52;7.30;;;27.80;75.60;;;;;;5063718;28;20053;-73
2023/08/18 08:52:10;;;;;;;8.07;6.78;;;27.90;71.20;;;;;;5062273;28;20086;-73
2023/08/18 08:54:45;;;;;;;7.97;6.13;;;27.90;69.60;;;;;;5060695;28;20037;-74
2023/08/18 08:57:12;;;;;;;8.63;6.60;;;28.00;68.10;;;;;;5062944;28;20032;-72
2023/08/18 08:59:38;;;;;;;6.13;5.53;;;27.90;67.40;;;;;;5060880;28;20032;-71
2023/08/18 09:02:04;;;;;;;6.90;6.30;;;27.80;68.30;;;;;;5063387;28;20032;-75
2023/08/18 09:04:30;;;;;;;7.43;6.55;;;27.70;68.20;;;;;;5062010;28;20033;-73
2023/08/18 09:06:57;;;;;;;9.13;6.47;;;27.70;68.30;;;;;;5060943;28;20029;-73
2023/08/18 09:09:24;;;;;;;7.00;6.30;;;27.70;68.70;;;;;;5060973;28;20033;-72
2023/08/18 09:11:49;;;;;;;7.65;6.47;;;27.80;70.80;;;;;;5061213;28;20074;-72
2023/08/18 09:14:16;;;;;;;7.15;6.15;;;27.80;69.70;;;;;;5059199;28;20029;-71
2023/08/18 09:16:45;;;;;;;8.25;6.05;;;27.90;69.20;;;;;;5061194;28;20032;-68
2023/08/18 09:19:13;;;;;;;11.93;6.50;;;27.90;71.30;;;;;;5060844;28;20029;-72
2023/08/18 09:21:39;;;;;;;10.82;7.05;;;27.90;70.20;;;;;;5058800;28;20033;-72
2023/08/18 09:24:06;;;;;;;8.98;6.40;;;27.80;69.30;;;;;;5063660;28;20418;-72
2023/08/18 09:26:32;;;;;;;7.22;6.18;;;27.80;70.10;;;;;;5063959;28;20469;-74
2023/08/18 09:28:58;;;;;;;7.97;6.22;;;27.80;69.70;;;;;;5061323;28;20036;-72
2023/08/18 09:31:24;;;;;;;8.43;6.40;;;27.90;72.10;;;;;;5061225;28;20060;-75
2023/08/18 09:33:53;;;;;;;13.00;6.82;;;27.90;73.80;;;;;;5059502;28;20094;-78
2023/08/18 09:36:19;;;;;;;8.27;6.95;;;28.00;75.10;;;;;;5061002;28;20076;-81
2023/08/18 09:38:45;;;;;;;7.20;6.50;;;28.00;77.10;;;;;;5061020;28;20032;-81
2023/08/18 09:41:12;;;;;;;7.63;6.63;;;27.90;76.10;;;;;;5063571;28;20070;-80
2023/08/18 09:43:41;;;;;;;6.82;6.15;;;28.00;73.20;;;;;;5062702;28;20083;-80
2023/08/18 09:46:09;;;;;;;7.25;6.45;;;27.90;74.60;;;;;;5059782;28;20044;-77
2023/08/18 09:48:39;;;;;;;7.85;6.30;;;28.00;78.10;;;;;;5059437;28;20095;-76
2023/08/18 09:51:09;;;;;;;9.85;7.03;;;27.90;75.70;;;;;;5062258;28;20036;-77
2023/08/18 09:53:40;;;;;;;10.13;6.80;;;28.00;77.30;;;;;;5060488;28;20068;-76
2023/08/18 09:56:12;;;;;;;7.95;6.60;;;28.00;76.50;;;;;;5062113;28;20495;-76
2023/08/18 09:58:46;;;;;;;9.23;7.00;;;28.00;76.70;;;;;;5058370;28;20040;-75
2023/08/18 10:01:14;;;;;;;8.52;7.30;;;28.00;79.90;;;;;;5060777;28;20040;-76
2023/08/18 10:03:41;;;;;;;7.80;6.50;;;28.00;76.30;;;;;;5060995;28;20033;-77
2023/08/18 10:06:08;;;;;;;10.90;6.47;;;28.00;76.50;;;;;;5059565;28;20033;-73
2023/08/18 10:08:34;;;;;;;7.90;7.10;;;28.00;77.30;;;;;;5057914;28;20032;-76
2023/08/18 10:11:01;;;;;;;7.05;6.22;;;28.00;75.40;;;;;;5059062;28;20064;-78
2023/08/18 10:13:31;;;;;;;9.85;7.00;;;28.00;74.40;;;;;;5059515;28;20056;-76
2023/08/18 10:15:58;;;;;;;6.80;5.97;;;28.00;74.60;;;;;;5058277;28;20124;-75
2023/08/18 10:18:24;;;;;;;7.15;6.13;;;28.00;75.00;;;;;;5060049;28;20506;-76
2023/08/18 10:20:52;;;;;;;7.28;6.25;;;28.00;76.70;;;;;;5059572;28;20041;-84
2023/08/18 10:23:18;;;;;;;8.75;6.43;;;28.00;75.10;;;;;;5059466;28;20033;-79
2023/08/18 10:25:48;;;;;;;8.10;6.65;;;28.00;75.70;;;;;;5059941;28;20669;-82
2023/08/18 10:28:19;;;;;;;8.35;6.60;;;28.00;75.50;;;;;;5041735;28;20412;-76
2023/08/18 10:31:05;;;;;;;10.07;6.82;;;28.00;75.60;;;;;;5059970;28;21509;-77
2023/08/18 10:33:35;;;;;;;9.52;6.93;;;27.90;75.40;;;;;;5058563;28;20037;-81
2023/08/18 10:36:03;;;;;;;10.07;6.90;;;27.90;76.30;;;;;;5059043;28;20695;-87
2023/08/18 10:38:30;;;;;;;7.05;6.30;;;27.90;76.50;;;;;;5029636;28;20163;-85
2023/08/18 10:40:56;;;;;;;7.85;6.80;;;27.90;77.00;;;;;;5058831;28;20029;-89
2023/08/18 10:43:26;;;;;;;8.57;6.90;;;27.90;76.00;;;;;;5040232;28;20028;-84
2023/08/18 10:45:59;;;;;;;7.97;7.15;;;27.90;75.40;;;;;;5059443;28;20036;-89
2023/08/18 10:48:34;;;;;;;7.90;6.60;;;27.90;75.40;;;;;;5045531;28;20036;-81
2023/08/18 10:51:00;;;;;;;;;;;27.90;79.40;;;;;;5061858;28;20070;-88
2023/08/18 10:53:37;;;;;;;7.43;6.57;;;27.90;75.80;;;;;;5062481;28;19971;-79
2023/08/18 10:56:04;;;;;;;7.72;6.47;;;27.90;76.80;;;;;;5041397;28;20117;-80
2023/08/18 10:58:31;;;;;;;8.70;6.55;;;27.90;75.70;;;;;;5061920;28;20036;-82
2023/08/18 11:00:58;;;;;;;13.90;6.95;;;28.00;79.50;;;;;;5058984;28;20037;-82
2023/08/18 11:03:25;;;;;;;9.23;6.78;;;28.00;79.90;;;;;;5059426;28;20028;-81
2023/08/18 11:05:51;;;;;;;8.18;6.38;;;28.00;77.40;;;;;;5059741;28;20032;-82
2023/08/18 11:08:18;;;;;;;10.68;7.53;;;28.00;78.90;;;;;;5058581;28;20131;-88
2023/08/18 11:10:44;;;;;;;10.77;7.13;;;28.00;77.10;;;;;;5030663;28;20044;-85
2023/08/18 11:13:32;;;;;;;8.48;6.80;;;28.00;78.00;;;;;;5057703;28;20506;-83
2023/08/18 11:15:58;;;;;;;10.57;7.20;;;28.00;77.70;;;;;;5059546;28;20037;-83
2023/08/18 11:18:24;;;;;;;9.30;7.65;;;28.00;78.60;;;;;;5061775;28;20028;-83
2023/08/18 11:20:51;;;;;;;8.32;7.53;;;28.00;78.80;;;;;;5061390;28;20028;-83
2023/08/18 11:23:18;;;;;;;9.75;6.90;;;27.90;78.40;;;;;;5059270;28;20036;-80
2023/08/18 11:25:45;;;;;;;9.00;6.53;;;28.00;79.30;;;;;;5063226;28;20029;-84
2023/08/18 11:28:13;;;;;;;9.10;6.70;;;28.00;79.70;;;;;;5062156;28;20033;-80
2023/08/18 11:30:39;;;;;;;13.32;7.47;;;28.00;80.00;;;;;;5062534;28;20124;-81
2023/08/18 11:33:05;;;;;;;16.77;8.13;;;28.00;80.00;;;;;;5061486;28;20028;-83
2023/08/18 11:35:32;;;;;;;9.18;7.72;;;27.90;80.50;;;;;;5060167;28;20067;-76
2023/08/18 11:37:58;;;;;;;8.63;6.55;;;28.00;81.00;;;;;;5060672;28;20040;-81
2023/08/18 11:40:25;;;;;;;8.98;7.57;;;28.00;81.20;;;;;;5064254;28;20090;-85
2023/08/18 11:42:52;;;;;;;9.57;7.30;;;28.00;81.50;;;;;;5061253;28;20078;-85
2023/08/18 11:45:24;;;;;;;9.52;7.75;;;28.00;82.10;;;;;;5064826;28;20047;-83
2023/08/18 11:47:59;;;;;;;11.25;7.68;;;28.00;81.90;;;;;;5066467;28;20039;-84
2023/08/18 11:50:32;;;;;;;9.40;7.93;;;28.00;81.30;;;;;;5062195;28;20345;-83
2023/08/18 11:52:59;;;;;;;8.90;8.00;;;28.00;81.60;;;;;;5076819;28;20098;-75
2023/08/18 11:55:34;;;;;;;9.02;7.85;;;27.90;81.70;;;;;;5062812;28;20464;-84
2023/08/18 11:58:09;;;;;;;10.35;7.28;;;28.00;81.70;;;;;;5059911;28;20518;-85
2023/08/18 12:00:37;;;;;;;12.32;7.75;;;27.90;82.10;;;;;;5060615;28;20040;-86
2023/08/18 12:03:04;;;;;;;9.80;7.80;;;27.90;82.10;;;;;;5052514;28;20028;-90
2023/08/18 12:05:31;;;;;;;11.60;8.38;;;27.90;82.10;;;;;;5053026;28;20037;-89
2023/08/18 12:07:59;;;;;;;8.52;7.65;;;;;;;;;;5062274;28;20032;-76
2023/08/18 12:10:25;;;;;;;11.13;7.53;;;27.90;81.80;;;;;;5060822;28;20071;-77
2023/08/18 12:12:56;;;;;;;11.77;8.15;;;27.90;82.10;;;;;;5065072;28;20048;-81
2023/08/18 12:15:25;;;;;;;11.95;8.18;;;27.80;82.40;;;;;;5065025;28;20035;-86
2023/08/18 12:17:51;;;;;;;9.43;8.02;;;27.70;82.50;;;;;;5064459;28;20028;-73
2023/08/18 12:20:21;;;;;;;9.80;8.00;;;27.80;82.60;;;;;;5064885;28;20032;-79
2023/08/18 12:22:49;;;;;;;10.48;7.60;;;27.70;82.60;;;;;;5061932;28;20032;-74
2023/08/18 12:25:16;;;;;;;8.57;7.60;;;27.70;82.40;;;;;;5061344;28;20484;-73
2023/08/18 12:27:45;;;;;;;11.23;7.70;;;27.70;82.70;;;;;;5061330;28;20054;-73
2023/08/18 12:30:11;;;;;;;9.35;7.55;;;27.80;83.60;;;;;;5061842;28;20044;-73
2023/08/18 12:32:37;;;;;;;8.68;7.72;;;27.70;82.30;;;;;;5064406;28;20442;-73
2023/08/18 12:35:04;;;;;;;11.02;7.90;;;27.70;82.60;;;;;;5064171;28;20028;-71
2023/08/18 12:37:30;;;;;;;9.10;8.15;;;27.70;82.60;;;;;;5060311;28;20578;-72
2023/08/18 12:39:57;;;;;;;9.60;7.38;;;27.70;82.50;;;;;;5062196;28;20044;-72